createdAt,value
2023-05-16T00:00:40.836Z,1.00
2023-05-16T00:03:07.969Z,1.00
2023-05-16T00:06:01.023Z,0.50
2023-05-16T00:08:46.622Z,1.75
2023-05-16T00:11:29.706Z,1.25
2023-05-16T00:14:04.528Z,2.50
2023-05-16T00:16:31.838Z,1.00
2023-05-16T00:19:01.488Z,2.25
2023-05-16T00:21:28.573Z,3.00
2023-05-16T00:23:55.559Z,3.75
2023-05-16T00:26:22.536Z,0.50
2023-05-16T00:28:49.534Z,1.25
2023-05-16T00:31:16.568Z,2.00
2023-05-16T00:33:43.700Z,2.00
2023-05-16T00:36:11.547Z,2.00
2023-05-16T00:38:38.526Z,2.00
2023-05-16T00:41:05.489Z,2.00
2023-05-16T00:43:32.418Z,2.00
2023-05-16T00:46:00.834Z,2.00
2023-05-16T00:48:28.041Z,1.00
2023-05-16T00:50:55.074Z,1.75
2023-05-16T00:53:22.084Z,1.00
2023-05-16T00:55:49.090Z,1.00
2023-05-16T00:58:16.704Z,2.00
2023-05-16T01:00:48.402Z,0.50
2023-05-16T01:03:15.721Z,1.75
2023-05-16T01:06:00.221Z,1.00
2023-05-16T01:08:49.483Z,0.00
2023-05-16T01:11:44.258Z,1.00
2023-05-16T01:14:34.736Z,1.25
2023-05-16T01:17:48.354Z,1.00
2023-05-16T01:20:32.242Z,2.00
2023-05-16T01:23:17.848Z,1.00
2023-05-16T01:26:17.188Z,0.50
2023-05-16T01:28:47.158Z,1.75
2023-05-16T01:31:14.283Z,1.00
2023-05-16T01:33:41.479Z,2.00
2023-05-16T01:36:22.059Z,1.00
2023-05-16T01:39:04.271Z,0.00
2023-05-16T01:41:56.000Z,0.00
2023-05-16T01:44:25.277Z,1.50
2023-05-16T01:46:58.439Z,0.50
2023-05-16T01:49:49.009Z,0.00
2023-05-16T01:52:23.288Z,1.00
2023-05-16T01:54:54.472Z,1.00
2023-05-16T01:57:26.412Z,1.00
2023-05-16T01:59:54.057Z,1.00
2023-05-16T02:02:21.334Z,2.00
2023-05-16T02:04:48.274Z,2.00
2023-05-16T02:07:15.333Z,1.00
2023-05-16T02:09:42.356Z,2.00
2023-05-16T02:12:09.291Z,2.00
2023-05-16T02:14:36.201Z,1.25
2023-05-16T02:17:03.143Z,1.00
2023-05-16T02:19:30.304Z,1.00
2023-05-16T02:21:57.628Z,1.50
2023-05-16T02:24:24.580Z,1.00
2023-05-16T02:26:51.449Z,2.00
2023-05-16T02:29:19.088Z,1.00
2023-05-16T02:31:46.652Z,1.00
2023-05-16T02:34:13.636Z,0.50
2023-05-16T02:36:40.632Z,1.00
2023-05-16T02:39:09.398Z,0.50
2023-05-16T02:41:36.470Z,0.00
2023-05-16T02:44:03.354Z,0.25
2023-05-16T02:46:35.643Z,1.75
2023-05-16T02:49:03.915Z,0.25
2023-05-16T02:51:30.820Z,0.00
2023-05-16T02:53:59.914Z,1.00
2023-05-16T02:56:27.985Z,1.00
2023-05-16T02:58:55.805Z,1.00
2023-05-16T03:01:23.072Z,1.00
2023-05-16T03:03:50.186Z,1.00
2023-05-16T03:06:17.257Z,1.00
2023-05-16T03:08:44.144Z,1.00
2023-05-16T03:11:11.329Z,0.00
2023-05-16T03:13:38.407Z,0.50
2023-05-16T03:16:07.234Z,0.00
2023-05-16T03:18:34.191Z,1.50
2023-05-16T03:21:02.248Z,1.00
2023-05-16T03:23:29.159Z,2.75
2023-05-16T03:25:56.416Z,1.75
2023-05-16T03:28:23.341Z,3.50
2023-05-16T03:30:50.344Z,5.50
2023-05-16T03:33:17.272Z,4.25
2023-05-16T03:35:44.310Z,4.00
2023-05-16T03:38:11.547Z,4.75
2023-05-16T03:40:38.593Z,3.00
2023-05-16T03:43:05.598Z,3.50
2023-05-16T03:45:32.550Z,4.00
2023-05-16T03:47:59.626Z,3.00
2023-05-16T03:50:26.570Z,2.75
2023-05-16T03:52:54.640Z,5.00
2023-05-16T03:55:22.264Z,3.50
2023-05-16T03:57:50.601Z,4.00
2023-05-16T04:00:17.741Z,1.00
2023-05-16T04:02:45.409Z,4.00
2023-05-16T04:05:12.690Z,6.00
2023-05-16T04:07:40.691Z,5.50
2023-05-16T04:10:09.334Z,6.00
2023-05-16T04:12:36.717Z,5.50
2023-05-16T04:15:04.830Z,5.25
2023-05-16T04:17:31.951Z,4.00
2023-05-16T04:19:59.243Z,4.50
2023-05-16T04:22:26.319Z,4.00
2023-05-16T04:24:53.236Z,4.00
2023-05-16T04:27:20.259Z,3.00
2023-05-16T04:29:47.329Z,2.00
2023-05-16T04:32:14.211Z,4.25
2023-05-16T04:34:41.356Z,3.00
2023-05-16T04:37:09.731Z,4.00
2023-05-16T04:39:38.106Z,5.75
2023-05-16T04:42:05.591Z,6.00
2023-05-16T04:44:32.594Z,6.25
2023-05-16T04:46:59.852Z,12.75
2023-05-16T04:49:26.804Z,12.25
2023-05-16T04:51:53.771Z,11.75
2023-05-16T04:54:20.919Z,12.50
2023-05-16T04:56:47.823Z,9.00
2023-05-16T04:59:15.395Z,6.75
2023-05-16T05:01:42.392Z,10.25
2023-05-16T05:04:09.298Z,12.75
2023-05-16T05:06:36.240Z,13.00
2023-05-16T05:09:03.288Z,10.00
2023-05-16T05:11:30.191Z,9.33
2023-05-16T05:13:57.125Z,9.50
2023-05-16T05:16:24.274Z,6.00
2023-05-16T05:18:51.477Z,6.00
2023-05-16T05:21:20.508Z,6.67
2023-05-16T05:23:49.473Z,7.00
2023-05-16T05:26:16.362Z,5.00
2023-05-16T05:28:47.920Z,4.67
2023-05-16T05:31:21.204Z,3.33
2023-05-16T05:33:48.795Z,5.00
2023-05-16T05:36:16.677Z,5.00
2023-05-16T05:38:43.540Z,3.67
2023-05-16T05:41:12.126Z,6.00
2023-05-16T05:43:39.200Z,4.33
2023-05-16T05:46:07.449Z,6.67
2023-05-16T05:48:34.671Z,4.67
2023-05-16T05:51:01.678Z,5.00
2023-05-16T05:53:28.602Z,8.67
2023-05-16T05:55:55.539Z,8.00
2023-05-16T05:58:22.629Z,7.67
2023-05-16T06:00:49.564Z,6.00
2023-05-16T06:03:16.853Z,7.00
2023-05-16T06:05:43.951Z,6.67
2023-05-16T06:08:11.165Z,7.67
2023-05-16T06:10:38.126Z,6.67
2023-05-16T06:13:05.056Z,0.00
2023-05-16T06:15:32.151Z,7.00
2023-05-16T06:17:59.599Z,9.00
2023-05-16T06:20:26.785Z,7.67
2023-05-16T06:22:53.775Z,10.00
2023-05-16T06:25:20.858Z,11.33
2023-05-16T06:27:47.809Z,9.33
2023-05-16T06:30:14.819Z,12.33
2023-05-16T06:32:41.976Z,13.00
2023-05-16T06:35:09.951Z,12.00
2023-05-16T06:37:37.011Z,12.67
2023-05-16T06:40:04.097Z,10.00
2023-05-16T06:42:31.064Z,10.67
2023-05-16T06:44:58.023Z,7.00
2023-05-16T06:47:24.970Z,15.00
2023-05-16T06:49:52.136Z,8.67
2023-05-16T06:52:19.084Z,7.33
2023-05-16T06:54:46.034Z,8.67
2023-05-16T06:57:13.696Z,6.33
2023-05-16T06:59:41.094Z,6.67
2023-05-16T07:02:08.024Z,4.00
2023-05-16T07:04:36.891Z,11.00
2023-05-16T07:07:05.034Z,15.00
2023-05-16T07:09:31.966Z,11.00
2023-05-16T07:11:58.897Z,9.33
2023-05-16T07:14:25.857Z,7.67
2023-05-16T07:16:52.835Z,4.67
2023-05-16T07:19:19.900Z,6.67
2023-05-16T07:21:46.964Z,8.33
2023-05-16T07:24:13.954Z,6.00
2023-05-16T07:26:41.088Z,5.67
2023-05-16T07:29:08.046Z,7.33
2023-05-16T07:31:35.061Z,7.00
2023-05-16T07:34:02.080Z,6.00
2023-05-16T07:36:29.042Z,5.00
2023-05-16T07:38:56.482Z,6.00
2023-05-16T07:41:23.408Z,5.67
2023-05-16T07:43:50.308Z,7.00
2023-05-16T07:46:17.292Z,6.33
2023-05-16T07:48:44.272Z,10.00
2023-05-16T07:51:11.252Z,10.00
2023-05-16T07:53:38.222Z,11.00
2023-05-16T07:56:08.634Z,6.00
2023-05-16T07:58:35.980Z,10.33
2023-05-16T08:01:03.221Z,11.33
2023-05-16T08:03:30.696Z,16.67
2023-05-16T08:05:57.965Z,8.67
2023-05-16T08:08:25.035Z,6.67
2023-05-16T08:10:52.002Z,5.00
2023-05-16T08:13:19.020Z,12.67
2023-05-16T08:15:46.961Z,9.67
2023-05-16T08:18:16.548Z,10.67
2023-05-16T08:20:43.807Z,14.00
2023-05-16T08:23:10.797Z,14.67
2023-05-16T08:25:37.929Z,10.00
2023-05-16T08:28:05.011Z,12.00
2023-05-16T08:30:32.439Z,12.00
2023-05-16T08:32:59.467Z,13.00
2023-05-16T08:35:26.718Z,16.25
2023-05-16T08:37:53.878Z,14.25
2023-05-16T08:40:22.639Z,12.67
2023-05-16T08:42:52.338Z,15.00
2023-05-16T08:45:19.649Z,10.00
2023-05-16T08:47:50.134Z,8.33
2023-05-16T08:50:17.504Z,8.00
2023-05-16T08:52:45.754Z,12.00
2023-05-16T08:55:15.196Z,8.00
2023-05-16T08:57:42.410Z,8.67
2023-05-16T09:00:13.552Z,9.00
2023-05-16T09:02:42.330Z,9.67
2023-05-16T09:05:11.890Z,7.67
2023-05-16T09:07:38.901Z,8.00
2023-05-16T09:10:08.581Z,6.00
2023-05-16T09:12:36.205Z,8.33
2023-05-16T09:15:05.046Z,9.00
2023-05-16T09:17:39.988Z,9.00
2023-05-16T09:20:12.167Z,7.33
2023-05-16T09:22:39.766Z,4.33
2023-05-16T09:25:12.719Z,10.00
2023-05-16T09:27:54.041Z,9.67
2023-05-16T09:30:29.480Z,12.00
2023-05-16T09:32:56.690Z,7.67
2023-05-16T09:35:42.537Z,9.00
2023-05-16T09:38:18.142Z,12.00
2023-05-16T09:40:46.238Z,10.33
2023-05-16T09:43:17.697Z,8.00
2023-05-16T09:45:49.234Z,8.33
2023-05-16T09:48:18.306Z,9.00
2023-05-16T09:50:54.650Z,12.00
2023-05-16T09:53:29.464Z,10.67
2023-05-16T09:56:10.745Z,10.00
2023-05-16T09:58:39.758Z,8.00
2023-05-16T10:01:08.163Z,11.00
2023-05-16T10:03:37.457Z,8.00
2023-05-16T10:06:09.301Z,8.67
2023-05-16T10:08:37.442Z,10.67
2023-05-16T10:11:06.761Z,14.00
2023-05-16T10:13:35.594Z,13.00
2023-05-16T10:16:12.771Z,16.00
2023-05-16T10:18:40.965Z,14.00
2023-05-16T10:21:15.198Z,11.33
2023-05-16T10:23:43.821Z,10.00
2023-05-16T10:26:14.349Z,7.00
2023-05-16T10:28:42.320Z,6.00
2023-05-16T10:31:10.810Z,8.67
2023-05-16T10:33:38.177Z,10.67
2023-05-16T10:36:05.786Z,9.33
2023-05-16T10:38:34.028Z,12.33
2023-05-16T10:41:02.105Z,9.33
2023-05-16T10:43:31.163Z,12.00
2023-05-16T10:46:02.961Z,10.00
2023-05-16T10:48:35.729Z,9.00
2023-05-16T10:51:21.372Z,9.00
2023-05-16T10:53:48.682Z,8.67
2023-05-16T10:56:15.622Z,8.00
2023-05-16T10:58:44.142Z,12.00
2023-05-16T11:01:30.434Z,9.00
2023-05-16T11:03:57.594Z,5.33
2023-05-16T11:06:26.112Z,10.00
2023-05-16T11:09:11.120Z,7.00
2023-05-16T11:11:46.506Z,7.33
2023-05-16T11:14:22.444Z,7.67
2023-05-16T11:17:02.402Z,5.00
2023-05-16T11:19:50.593Z,6.00
2023-05-16T11:22:24.109Z,6.00
2023-05-16T11:25:06.057Z,9.00
2023-05-16T11:27:35.302Z,11.00
2023-05-16T11:30:13.607Z,11.67
2023-05-16T11:32:43.423Z,13.33
2023-05-16T11:35:14.654Z,12.00
2023-05-16T11:37:43.029Z,19.00
2023-05-16T11:40:12.557Z,16.00
2023-05-16T11:42:44.476Z,16.33
2023-05-16T11:45:16.914Z,16.33
2023-05-16T11:47:45.880Z,14.00
2023-05-16T11:50:14.473Z,12.33
2023-05-16T11:52:44.955Z,10.00
2023-05-16T11:55:14.492Z,13.33
2023-05-16T11:57:44.639Z,12.33
2023-05-16T12:00:19.688Z,9.00
2023-05-16T12:02:50.461Z,12.00
2023-05-16T12:05:19.371Z,10.00
2023-05-16T12:07:47.731Z,7.33
2023-05-16T12:10:17.080Z,10.00
2023-05-16T12:12:50.332Z,9.00
2023-05-16T12:15:17.632Z,9.67
2023-05-16T12:17:46.204Z,6.00
2023-05-16T12:20:14.794Z,8.67
2023-05-16T12:22:43.317Z,8.00
2023-05-16T12:25:23.213Z,7.00
2023-05-16T12:27:51.966Z,6.00
2023-05-16T12:30:21.506Z,6.67
2023-05-16T12:32:59.587Z,6.33
2023-05-16T12:35:30.723Z,6.00
2023-05-16T12:37:57.705Z,10.00
2023-05-16T12:40:28.431Z,7.00
2023-05-16T12:42:55.461Z,10.67
2023-05-16T12:45:23.430Z,7.67
2023-05-16T12:47:51.425Z,7.33
2023-05-16T12:50:18.461Z,7.00
2023-05-16T12:52:55.402Z,6.00
2023-05-16T12:55:23.284Z,9.00
2023-05-16T12:57:51.381Z,5.33
2023-05-16T13:00:20.269Z,6.00
2023-05-16T13:02:48.894Z,7.00
2023-05-16T13:05:16.632Z,6.00
2023-05-16T13:07:44.118Z,7.00
2023-05-16T13:10:12.359Z,7.00
2023-05-16T13:12:41.178Z,9.00
2023-05-16T13:15:09.934Z,13.00
2023-05-16T13:17:38.256Z,13.00
2023-05-16T13:20:10.071Z,10.00
2023-05-16T13:22:37.625Z,9.00
2023-05-16T13:25:06.478Z,9.33
2023-05-16T13:27:33.734Z,8.33
2023-05-16T13:30:00.998Z,7.33
2023-05-16T13:32:28.195Z,6.00
2023-05-16T13:34:55.351Z,9.00
2023-05-16T13:37:24.625Z,8.00
2023-05-16T13:39:52.719Z,7.00
2023-05-16T13:42:19.616Z,7.33
2023-05-16T13:44:46.563Z,11.33
2023-05-16T13:47:13.532Z,7.67
2023-05-16T13:49:40.516Z,10.00
2023-05-16T13:52:07.586Z,8.67
2023-05-16T13:54:34.534Z,9.00
2023-05-16T13:57:02.458Z,7.67
2023-05-16T13:59:55.233Z,8.33
2023-05-16T14:02:16.583Z,9.00
2023-05-16T14:04:43.575Z,7.33
2023-05-16T14:07:10.582Z,7.00
2023-05-16T14:09:39.642Z,7.00
2023-05-16T14:12:08.023Z,8.33
2023-05-16T14:14:35.670Z,5.33
2023-05-16T14:17:04.192Z,8.33
2023-05-16T14:19:31.569Z,6.67
2023-05-16T14:21:58.853Z,7.00
2023-05-16T14:24:25.823Z,6.00
2023-05-16T14:26:58.430Z,5.33
2023-05-16T14:29:25.992Z,5.67
2023-05-16T14:31:53.482Z,4.00
2023-05-16T14:34:20.839Z,4.33
2023-05-16T14:36:48.128Z,6.00
2023-05-16T14:39:15.925Z,8.00
2023-05-16T14:41:42.870Z,8.00
2023-05-16T14:44:10.092Z,4.00
2023-05-16T14:46:37.146Z,5.00
2023-05-16T14:49:04.305Z,4.00
2023-05-16T14:51:32.569Z,5.00
2023-05-16T14:53:59.518Z,5.00
2023-05-16T14:56:27.145Z,4.00
2023-05-16T14:58:54.577Z,4.00
2023-05-16T15:01:21.796Z,4.67
2023-05-16T15:03:55.474Z,4.00
2023-05-16T15:06:23.903Z,7.00
2023-05-16T15:08:51.083Z,6.67
2023-05-16T15:11:18.061Z,6.67
2023-05-16T15:13:45.023Z,8.00
2023-05-16T15:16:12.414Z,13.25
2023-05-16T15:18:39.569Z,12.50
2023-05-16T15:21:06.800Z,12.25
2023-05-16T15:23:34.227Z,11.00
2023-05-16T15:26:01.191Z,9.25
2023-05-16T15:28:28.156Z,12.50
2023-05-16T15:30:55.232Z,9.00
2023-05-16T15:33:22.133Z,7.25
2023-05-16T15:35:49.102Z,10.50
2023-05-16T15:38:16.072Z,9.50
2023-05-16T15:40:43.148Z,11.00
2023-05-16T15:43:10.075Z,13.00
2023-05-16T15:45:40.165Z,9.00
2023-05-16T15:48:07.900Z,11.50
2023-05-16T15:50:35.071Z,9.75
2023-05-16T15:53:02.179Z,8.00
2023-05-16T15:55:29.299Z,8.50
2023-05-16T15:57:58.767Z,6.00
2023-05-16T16:00:26.279Z,7.00
2023-05-16T16:02:53.561Z,5.00
2023-05-16T16:05:20.732Z,5.00
2023-05-16T16:07:47.790Z,5.25
2023-05-16T16:10:14.892Z,4.00
2023-05-16T16:12:42.001Z,6.50
2023-05-16T16:15:10.900Z,7.00
2023-05-16T16:17:38.099Z,9.25
2023-05-16T16:20:05.565Z,7.75
2023-05-16T16:22:32.483Z,8.00
2023-05-16T16:25:00.813Z,7.75
2023-05-16T16:27:27.816Z,10.75
2023-05-16T16:29:54.748Z,11.00
2023-05-16T16:32:21.722Z,10.75
2023-05-16T16:34:49.598Z,8.75
2023-05-16T16:37:16.822Z,7.75
2023-05-16T16:39:43.838Z,7.75
2023-05-16T16:42:11.000Z,8.00
2023-05-16T16:44:37.992Z,5.50
2023-05-16T16:47:05.246Z,6.00
2023-05-16T16:49:32.365Z,4.50
2023-05-16T16:51:59.403Z,4.25
2023-05-16T16:54:26.340Z,9.00
2023-05-16T16:56:53.296Z,9.00
2023-05-16T16:59:21.268Z,9.00
2023-05-16T17:01:48.236Z,8.25
2023-05-16T17:04:15.262Z,6.50
2023-05-16T17:06:42.301Z,5.75
2023-05-16T17:09:13.919Z,5.00
2023-05-16T17:11:41.938Z,4.75
2023-05-16T17:14:10.953Z,4.75
2023-05-16T17:16:38.767Z,7.25
2023-05-16T17:19:05.810Z,16.00
2023-05-16T17:21:34.918Z,19.50
2023-05-16T17:24:02.040Z,15.00
2023-05-16T17:26:29.442Z,17.00
2023-05-16T17:29:00.527Z,11.00
2023-05-16T17:31:28.456Z,17.75
2023-05-16T17:33:55.773Z,10.00
2023-05-16T17:36:22.875Z,9.25
2023-05-16T17:38:50.074Z,9.00
2023-05-16T17:41:17.384Z,17.25
2023-05-16T17:43:45.553Z,16.50
2023-05-16T17:46:12.945Z,21.50
2023-05-16T17:48:40.269Z,24.25
2023-05-16T17:51:07.296Z,22.50
2023-05-16T17:53:34.252Z,25.50
2023-05-16T17:56:01.182Z,23.25
2023-05-16T17:58:28.454Z,20.00
2023-05-16T18:00:56.629Z,20.25
2023-05-16T18:03:23.837Z,22.25
2023-05-16T18:05:51.267Z,23.25
2023-05-16T18:08:18.341Z,22.50
2023-05-16T18:10:52.023Z,16.00
2023-05-16T18:13:20.000Z,16.75
2023-05-16T18:15:47.002Z,17.00
2023-05-16T18:18:14.059Z,23.50
2023-05-16T18:20:41.128Z,19.75
2023-05-16T18:23:08.748Z,15.00
2023-05-16T18:25:35.838Z,8.75
2023-05-16T18:28:02.889Z,9.25
2023-05-16T18:30:29.880Z,16.50
2023-05-16T18:32:56.916Z,13.75
2023-05-16T18:35:24.024Z,15.25
2023-05-16T18:37:51.254Z,13.00
2023-05-16T18:40:18.400Z,10.25
2023-05-16T18:42:45.381Z,6.00
2023-05-16T18:45:12.402Z,11.00
2023-05-16T18:47:39.604Z,8.75
2023-05-16T18:50:07.444Z,7.50
2023-05-16T18:52:35.548Z,7.25
2023-05-16T18:55:02.595Z,6.50
2023-05-16T18:57:29.830Z,26.25
2023-05-16T18:59:57.124Z,25.25
2023-05-16T19:02:33.840Z,22.00
2023-05-16T19:05:08.679Z,26.50
2023-05-16T19:07:36.040Z,32.50
2023-05-16T19:10:04.002Z,29.50
2023-05-16T19:12:31.115Z,22.50
2023-05-16T19:14:58.176Z,24.75
2023-05-16T19:17:25.375Z,20.75
2023-05-16T19:19:52.977Z,18.50
2023-05-16T19:22:19.903Z,19.50
2023-05-16T19:24:46.854Z,22.75
2023-05-16T19:27:13.834Z,18.50
2023-05-16T19:29:41.576Z,30.00
2023-05-16T19:32:08.621Z,27.75
2023-05-16T19:34:38.897Z,26.75
2023-05-16T19:37:06.035Z,26.25
2023-05-16T19:39:33.038Z,25.50
2023-05-16T19:42:06.937Z,31.50
2023-05-16T19:44:34.209Z,33.25
2023-05-16T19:47:01.206Z,31.25
2023-05-16T19:49:28.723Z,25.00
2023-05-16T19:51:56.151Z,26.00
2023-05-16T19:54:23.122Z,21.25
2023-05-16T19:56:50.019Z,16.75
2023-05-16T20:02:04.621Z,15.25
2023-05-16T20:04:31.722Z,10.75
2023-05-16T20:06:58.749Z,13.50
2023-05-16T20:09:25.780Z,15.25
2023-05-16T20:11:53.911Z,11.00
2023-05-16T20:14:20.880Z,12.75
2023-05-16T20:16:47.894Z,16.75
2023-05-16T20:19:15.613Z,19.75
2023-05-16T20:21:42.595Z,25.25
2023-05-16T20:24:09.529Z,22.25
2023-05-16T20:26:36.471Z,24.75
2023-05-16T20:29:04.022Z,26.00
2023-05-16T20:31:30.942Z,24.50
2023-05-16T20:33:57.966Z,30.00
2023-05-16T20:36:25.133Z,21.50
2023-05-16T20:38:52.300Z,17.75
2023-05-16T20:41:19.368Z,24.00
2023-05-16T20:43:47.113Z,25.75
2023-05-16T20:46:14.000Z,27.00
2023-05-16T20:48:41.028Z,24.50
2023-05-16T20:51:08.637Z,29.25
2023-05-16T20:53:35.576Z,20.25
2023-05-16T20:56:02.539Z,19.00
2023-05-16T20:58:29.504Z,17.00
2023-05-16T21:00:56.533Z,17.25
2023-05-16T21:03:23.476Z,14.25
2023-05-16T21:05:50.540Z,22.00
2023-05-16T21:08:17.610Z,15.75
2023-05-16T21:10:44.545Z,21.00
2023-05-16T21:13:11.523Z,18.75
2023-05-16T21:15:39.852Z,20.00
2023-05-16T21:18:07.025Z,18.25
2023-05-16T21:20:34.061Z,19.50
2023-05-16T21:23:01.332Z,20.00
2023-05-16T21:25:28.561Z,20.50
2023-05-16T21:27:56.492Z,17.00
2023-05-16T21:30:23.473Z,14.75
2023-05-16T21:32:50.463Z,13.50
2023-05-16T21:35:17.596Z,17.00
2023-05-16T21:37:44.541Z,15.25
2023-05-16T21:40:14.940Z,12.50
2023-05-16T21:42:41.881Z,13.00
2023-05-16T21:45:12.776Z,16.50
2023-05-16T21:47:39.846Z,15.25
2023-05-16T21:50:07.707Z,18.75
2023-05-16T21:52:34.686Z,16.00
2023-05-16T21:55:01.619Z,23.50
2023-05-16T21:57:28.584Z,24.25
2023-05-16T21:59:55.611Z,17.00
2023-05-16T22:02:23.473Z,14.25
2023-05-16T22:04:51.153Z,18.50
2023-05-16T22:07:18.685Z,18.50
2023-05-16T22:09:46.131Z,21.75
2023-05-16T22:12:13.237Z,19.50
2023-05-16T22:14:40.171Z,18.75
2023-05-16T22:17:07.148Z,17.25
2023-05-16T22:19:34.133Z,16.00
2023-05-16T22:22:01.777Z,17.00
2023-05-16T22:24:28.718Z,21.50
2023-05-16T22:26:55.771Z,18.00
2023-05-16T22:29:22.808Z,17.00
2023-05-16T22:31:49.804Z,18.25
2023-05-16T22:34:20.011Z,21.75
2023-05-16T22:36:47.058Z,22.50
2023-05-16T22:39:14.001Z,16.50
2023-05-16T22:41:40.914Z,20.00
2023-05-16T22:44:07.861Z,21.00
2023-05-16T22:46:34.809Z,19.25
2023-05-16T22:49:01.869Z,18.00
2023-05-16T22:51:28.820Z,19.50
2023-05-16T22:53:55.812Z,19.75
2023-05-16T22:56:22.707Z,21.00
2023-05-16T22:58:49.680Z,15.75
2023-05-16T23:01:16.607Z,14.75
2023-05-16T23:03:43.636Z,14.75
2023-05-16T23:06:10.600Z,16.75
2023-05-16T23:08:37.627Z,17.00
2023-05-16T23:11:04.557Z,14.00
2023-05-16T23:13:31.498Z,15.50
2023-05-16T23:15:58.438Z,13.75
2023-05-16T23:18:25.762Z,14.50
2023-05-16T23:20:53.842Z,17.50
2023-05-16T23:23:20.863Z,13.00
2023-05-16T23:25:48.905Z,11.75
2023-05-16T23:28:15.832Z,14.00
2023-05-16T23:30:42.803Z,7.00
2023-05-16T23:33:09.930Z,12.25
2023-05-16T23:35:36.916Z,9.00
2023-05-16T23:38:03.837Z,8.00
2023-05-16T23:40:30.782Z,6.75
2023-05-16T23:42:57.690Z,11.00
2023-05-16T23:45:24.645Z,11.50
2023-05-16T23:47:51.693Z,9.50
2023-05-16T23:50:18.821Z,8.25
2023-05-16T23:52:45.864Z,7.00
2023-05-16T23:55:12.881Z,6.00
2023-05-16T23:57:41.396Z,6.00
